createdAt,value
2023-04-29T00:01:09.887Z,35.55
2023-04-29T00:03:37.264Z,35.88
2023-04-29T00:06:04.791Z,36.17
2023-04-29T00:08:31.953Z,36.22
2023-04-29T00:10:58.894Z,30.00
2023-04-29T00:13:26.213Z,27.45
2023-04-29T00:15:53.258Z,30.15
2023-04-29T00:18:20.315Z,25.50
2023-04-29T00:20:47.467Z,29.45
2023-04-29T00:23:14.500Z,19.73
2023-04-29T00:25:41.405Z,27.17
2023-04-29T00:28:08.574Z,24.63
2023-04-29T00:30:35.626Z,20.25
2023-04-29T00:33:02.783Z,27.20
2023-04-29T00:35:30.050Z,27.30
2023-04-29T00:37:57.017Z,20.70
2023-04-29T00:40:23.966Z,21.30
2023-04-29T00:42:51.173Z,20.08
2023-04-29T00:45:18.160Z,20.85
2023-04-29T00:47:45.266Z,19.15
2023-04-29T00:50:12.660Z,22.05
2023-04-29T00:52:40.093Z,17.50
2023-04-29T00:55:09.275Z,18.25
2023-04-29T00:57:36.536Z,23.58
2023-04-29T01:00:04.366Z,17.92
2023-04-29T01:02:31.895Z,17.85
2023-04-29T01:04:59.193Z,23.13
2023-04-29T01:07:45.908Z,22.27
2023-04-29T01:10:20.222Z,20.30
2023-04-29T01:15:23.507Z,13.13
2023-04-29T01:18:00.356Z,15.88
2023-04-29T01:20:28.587Z,18.45
2023-04-29T01:22:55.505Z,16.50
2023-04-29T01:25:22.543Z,21.30
2023-04-29T01:28:18.624Z,15.90
2023-04-29T01:30:58.173Z,19.98
2023-04-29T01:33:28.276Z,19.50
2023-04-29T01:36:14.028Z,17.52
2023-04-29T01:39:08.289Z,31.80
2023-04-29T01:41:49.703Z,18.80
2023-04-29T01:44:26.542Z,21.40
2023-04-29T01:46:54.761Z,18.27
2023-04-29T01:49:28.969Z,25.27
2023-04-29T01:51:56.952Z,20.00
2023-04-29T01:54:25.054Z,20.50
2023-04-29T01:56:52.264Z,19.40
2023-04-29T01:59:42.190Z,22.05
2023-04-29T02:02:27.723Z,20.95
2023-04-29T02:05:02.324Z,19.48
2023-04-29T02:07:29.388Z,19.30
2023-04-29T02:09:58.522Z,22.80
2023-04-29T02:12:26.362Z,25.17
2023-04-29T02:14:54.398Z,20.98
2023-04-29T02:17:22.935Z,24.10
2023-04-29T02:19:50.107Z,21.80
2023-04-29T02:22:17.420Z,33.60
2023-04-29T02:24:44.940Z,25.80
2023-04-29T02:27:11.922Z,22.80
2023-04-29T02:29:39.148Z,20.17
2023-04-29T02:32:07.024Z,22.45
2023-04-29T02:34:33.918Z,27.15
2023-04-29T02:37:02.118Z,22.90
2023-04-29T02:39:28.992Z,23.98
2023-04-29T02:41:56.510Z,21.27
2023-04-29T02:44:23.458Z,30.83
2023-04-29T02:46:50.591Z,24.38
2023-04-29T02:49:17.597Z,26.83
2023-04-29T02:51:44.870Z,22.00
2023-04-29T02:54:12.251Z,21.50
2023-04-29T02:56:39.467Z,22.88
2023-04-29T02:59:06.545Z,25.35
2023-04-29T03:01:33.762Z,21.15
2023-04-29T03:04:00.898Z,24.13
2023-04-29T03:06:28.183Z,25.13
2023-04-29T03:08:55.117Z,23.92
2023-04-29T03:11:24.625Z,26.58
2023-04-29T03:13:51.549Z,18.15
2023-04-29T03:16:18.627Z,22.50
2023-04-29T03:18:45.995Z,20.52
2023-04-29T03:21:13.294Z,25.05
2023-04-29T03:23:40.260Z,29.17
2023-04-29T03:26:09.515Z,23.73
2023-04-29T03:28:37.841Z,19.80
2023-04-29T03:31:05.101Z,20.65
2023-04-29T03:33:32.237Z,22.42
2023-04-29T03:35:59.303Z,21.08
2023-04-29T03:38:35.837Z,21.90
2023-04-29T03:41:05.804Z,24.30
2023-04-29T03:43:33.321Z,25.05
2023-04-29T03:46:00.615Z,23.05
2023-04-29T03:48:28.056Z,22.90
2023-04-29T03:50:55.085Z,25.17
2023-04-29T03:53:22.216Z,23.15
2023-04-29T03:55:49.436Z,23.77
2023-04-29T03:58:17.192Z,28.58
2023-04-29T04:00:44.507Z,28.48
2023-04-29T04:03:17.044Z,20.45
2023-04-29T04:05:44.556Z,23.75
2023-04-29T04:08:15.028Z,23.30
2023-04-29T04:10:42.216Z,23.45
2023-04-29T04:13:21.066Z,27.40
2023-04-29T04:15:52.293Z,30.13
2023-04-29T04:18:19.617Z,26.67
2023-04-29T04:20:47.200Z,25.35
2023-04-29T04:23:14.780Z,31.88
2023-04-29T04:25:49.714Z,23.80
2023-04-29T04:28:40.302Z,27.13
2023-04-29T04:31:15.716Z,27.83
2023-04-29T04:33:43.171Z,23.83
2023-04-29T04:36:10.075Z,28.25
2023-04-29T04:38:37.549Z,25.40
2023-04-29T04:41:09.189Z,26.02
2023-04-29T04:43:38.310Z,25.58
2023-04-29T04:46:15.138Z,30.98
2023-04-29T04:49:02.812Z,25.38
2023-04-29T04:51:33.082Z,29.38
2023-04-29T04:54:00.050Z,28.73
2023-04-29T04:56:29.466Z,26.98
2023-04-29T04:58:57.532Z,36.42
2023-04-29T05:01:24.640Z,28.65
2023-04-29T05:03:51.832Z,28.98
2023-04-29T05:06:19.123Z,28.77
2023-04-29T05:08:47.647Z,28.30
2023-04-29T05:11:20.263Z,24.10
2023-04-29T05:14:01.135Z,30.92
2023-04-29T05:16:28.382Z,26.70
2023-04-29T05:18:55.420Z,34.22
2023-04-29T05:21:25.825Z,35.10
2023-04-29T05:23:52.887Z,29.98
2023-04-29T05:26:19.881Z,24.35
2023-04-29T05:28:47.224Z,20.77
2023-04-29T05:31:15.324Z,26.45
2023-04-29T05:33:42.463Z,32.05
2023-04-29T05:36:09.428Z,22.50
2023-04-29T05:38:36.524Z,25.25
2023-04-29T05:41:05.835Z,30.00
2023-04-29T05:44:02.471Z,31.65
2023-04-29T05:46:32.077Z,28.10
2023-04-29T05:48:59.400Z,34.45
2023-04-29T05:51:28.512Z,24.20
2023-04-29T05:53:55.787Z,23.92
2023-04-29T05:56:23.462Z,26.40
2023-04-29T05:58:50.706Z,24.75
2023-04-29T06:01:18.370Z,23.58
2023-04-29T06:03:46.413Z,22.77
2023-04-29T06:06:57.124Z,27.50
2023-04-29T06:09:44.702Z,23.10
2023-04-29T06:12:12.197Z,26.70
2023-04-29T06:14:39.168Z,23.02
2023-04-29T06:17:06.219Z,22.50
2023-04-29T06:19:34.119Z,19.35
2023-04-29T06:22:01.327Z,26.02
2023-04-29T06:24:28.400Z,20.70
2023-04-29T06:26:57.212Z,21.00
2023-04-29T06:29:26.090Z,20.42
2023-04-29T06:31:54.384Z,20.90
2023-04-29T06:34:21.664Z,18.25
2023-04-29T06:37:18.139Z,24.75
2023-04-29T06:40:07.232Z,22.13
2023-04-29T06:42:43.832Z,24.48
2023-04-29T06:45:29.574Z,15.65
2023-04-29T06:48:06.716Z,20.95
2023-04-29T06:50:56.162Z,18.25
2023-04-29T06:53:24.793Z,18.67
2023-04-29T06:55:51.965Z,21.90
2023-04-29T06:58:20.914Z,20.58
2023-04-29T07:00:50.336Z,21.60
2023-04-29T07:03:19.245Z,21.23
2023-04-29T07:05:46.379Z,24.42
2023-04-29T07:08:14.382Z,22.02
2023-04-29T07:10:41.739Z,25.63
2023-04-29T07:13:09.403Z,21.95
2023-04-29T07:15:37.851Z,25.85
2023-04-29T07:18:06.319Z,24.23
2023-04-29T07:20:36.638Z,28.48
2023-04-29T07:23:04.055Z,20.55
2023-04-29T07:25:31.326Z,22.98
2023-04-29T07:27:58.716Z,21.60
2023-04-29T07:30:28.859Z,23.38
2023-04-29T07:32:56.238Z,21.58
2023-04-29T07:35:24.721Z,22.25
2023-04-29T07:37:52.376Z,22.17
2023-04-29T07:40:19.688Z,20.30
2023-04-29T07:42:48.313Z,20.17
2023-04-29T07:45:15.797Z,22.27
2023-04-29T07:47:44.183Z,17.13
2023-04-29T07:50:11.851Z,16.40
2023-04-29T07:52:39.381Z,22.10
2023-04-29T07:55:07.101Z,16.35
2023-04-29T07:57:34.305Z,27.58
2023-04-29T08:00:01.880Z,17.05
2023-04-29T08:02:29.592Z,17.73
2023-04-29T08:04:57.447Z,17.60
2023-04-29T08:07:24.972Z,24.50
2023-04-29T08:09:52.120Z,17.08
2023-04-29T08:12:19.225Z,23.45
2023-04-29T08:14:46.098Z,21.08
2023-04-29T08:17:13.061Z,20.33
2023-04-29T08:19:39.975Z,21.50
2023-04-29T08:22:07.018Z,18.40
2023-04-29T08:24:35.211Z,18.08
2023-04-29T08:27:03.567Z,15.07
2023-04-29T08:29:34.348Z,19.65
2023-04-29T08:32:01.733Z,17.38
2023-04-29T08:34:28.839Z,15.82
2023-04-29T08:36:57.699Z,16.02
2023-04-29T08:39:25.369Z,17.13
2023-04-29T08:41:53.579Z,17.65
2023-04-29T08:44:21.569Z,24.52
2023-04-29T08:46:48.753Z,26.90
2023-04-29T08:49:15.741Z,30.02
2023-04-29T08:51:42.722Z,31.02
2023-04-29T08:54:09.654Z,22.80
2023-04-29T08:56:37.571Z,29.77
2023-04-29T08:59:06.720Z,24.05
2023-04-29T09:01:36.714Z,21.13
2023-04-29T09:04:16.227Z,25.58
2023-04-29T09:06:43.499Z,22.63
2023-04-29T09:09:11.710Z,24.70
2023-04-29T09:11:38.801Z,28.23
2023-04-29T09:14:06.160Z,26.48
2023-04-29T09:16:33.369Z,28.05
2023-04-29T09:19:00.646Z,23.55
2023-04-29T09:21:32.222Z,27.52
2023-04-29T09:24:03.612Z,23.33
2023-04-29T09:26:42.890Z,32.38
2023-04-29T09:29:10.397Z,25.42
2023-04-29T09:31:41.062Z,31.08
2023-04-29T09:34:08.788Z,24.80
2023-04-29T09:36:50.913Z,26.40
2023-04-29T09:39:22.579Z,24.60
2023-04-29T09:41:52.776Z,21.58
2023-04-29T09:44:24.605Z,27.48
2023-04-29T09:47:10.813Z,24.67
2023-04-29T09:49:50.021Z,28.25
2023-04-29T09:52:18.324Z,24.98
2023-04-29T09:54:45.741Z,28.55
2023-04-29T09:57:15.877Z,21.52
2023-04-29T09:59:44.585Z,27.85
2023-04-29T10:02:15.833Z,26.05
2023-04-29T10:04:45.989Z,21.92
2023-04-29T10:07:17.680Z,22.63
2023-04-29T10:09:47.334Z,20.50
2023-04-29T10:12:19.054Z,22.30
2023-04-29T10:14:52.768Z,26.25
2023-04-29T10:17:27.165Z,26.63
2023-04-29T10:20:05.911Z,22.50
2023-04-29T10:22:57.044Z,24.77
2023-04-29T10:25:25.251Z,23.33
2023-04-29T10:27:55.090Z,24.38
2023-04-29T10:30:22.769Z,22.85
2023-04-29T10:32:52.376Z,25.80
2023-04-29T10:35:22.659Z,19.48
2023-04-29T10:37:50.152Z,26.95
2023-04-29T10:40:54.014Z,26.75
2023-04-29T10:43:26.452Z,25.45
2023-04-29T10:46:26.915Z,23.13
2023-04-29T10:49:03.109Z,24.60
2023-04-29T10:51:40.358Z,24.15
2023-04-29T10:54:17.729Z,21.67
2023-04-29T10:56:50.493Z,23.15
2023-04-29T10:59:22.208Z,31.00
2023-04-29T11:01:50.832Z,23.73
2023-04-29T11:04:20.068Z,25.33
2023-04-29T11:06:59.216Z,26.52
2023-04-29T11:09:28.139Z,26.60
2023-04-29T11:12:08.125Z,26.75
2023-04-29T11:14:49.342Z,24.83
2023-04-29T11:17:18.143Z,32.28
2023-04-29T11:19:48.468Z,23.98
2023-04-29T11:22:30.102Z,26.67
2023-04-29T11:25:02.493Z,28.20
2023-04-29T11:27:37.298Z,29.45
2023-04-29T11:30:06.985Z,27.65
2023-04-29T11:32:40.074Z,24.83
2023-04-29T11:35:12.003Z,25.35
2023-04-29T11:37:40.180Z,29.10
2023-04-29T11:40:08.185Z,25.45
2023-04-29T11:42:38.928Z,28.38
2023-04-29T11:45:07.334Z,27.88
2023-04-29T11:47:34.264Z,26.48
2023-04-29T11:50:08.023Z,29.25
2023-04-29T11:52:41.680Z,25.95
2023-04-29T11:55:10.126Z,30.88
2023-04-29T11:57:37.282Z,32.35
2023-04-29T12:00:06.093Z,25.27
2023-04-29T12:02:35.339Z,29.15
2023-04-29T12:05:09.426Z,30.05
2023-04-29T12:07:37.631Z,31.17
2023-04-29T12:10:09.692Z,28.33
2023-04-29T12:12:37.379Z,27.55
2023-04-29T12:15:05.517Z,25.50
2023-04-29T12:17:32.864Z,27.83
2023-04-29T12:20:00.036Z,28.27
2023-04-29T12:22:33.989Z,30.75
2023-04-29T12:25:04.098Z,30.58
2023-04-29T12:27:32.271Z,24.23
2023-04-29T12:29:59.185Z,27.63
2023-04-29T12:32:26.346Z,24.85
2023-04-29T12:34:53.598Z,28.10
2023-04-29T12:37:26.297Z,25.75
2023-04-29T12:39:55.872Z,28.23
2023-04-29T12:42:22.750Z,25.45
2023-04-29T12:44:50.031Z,26.55
2023-04-29T12:47:17.221Z,27.20
2023-04-29T12:49:45.894Z,24.92
2023-04-29T12:52:13.450Z,28.83
2023-04-29T12:54:44.072Z,27.20
2023-04-29T12:57:12.503Z,25.90
2023-04-29T12:59:41.365Z,21.02
2023-04-29T13:02:08.798Z,19.77
2023-04-29T13:04:35.997Z,21.38
2023-04-29T13:07:04.432Z,23.92
2023-04-29T13:09:31.499Z,27.88
2023-04-29T13:11:59.596Z,25.13
2023-04-29T13:14:27.368Z,24.13
2023-04-29T13:16:54.338Z,25.65
2023-04-29T13:19:32.135Z,20.27
2023-04-29T13:22:09.183Z,18.58
2023-04-29T13:24:36.789Z,17.75
2023-04-29T13:27:04.233Z,23.50
2023-04-29T13:29:31.569Z,20.73
2023-04-29T13:31:58.756Z,22.98
2023-04-29T13:34:25.825Z,19.73
2023-04-29T13:36:52.816Z,25.77
2023-04-29T13:39:22.898Z,23.30
2023-04-29T13:41:50.218Z,25.10
2023-04-29T13:46:47.754Z,20.67
2023-04-29T13:49:29.344Z,19.25
2023-04-29T13:59:44.740Z,21.63
2023-04-29T14:04:48.285Z,18.58
2023-04-29T14:07:15.283Z,18.38
2023-04-29T14:09:42.800Z,19.73
2023-04-29T14:12:09.791Z,19.23
2023-04-29T14:14:36.757Z,23.80
2023-04-29T14:17:03.868Z,20.50
2023-04-29T14:19:31.211Z,16.17
2023-04-29T14:21:58.111Z,19.30
2023-04-29T14:24:25.078Z,22.00
2023-04-29T14:26:53.273Z,22.75
2023-04-29T14:29:20.317Z,28.40
2023-04-29T14:31:47.595Z,22.15
2023-04-29T14:34:14.624Z,20.40
2023-04-29T14:36:41.555Z,22.05
2023-04-29T14:39:08.659Z,19.20
2023-04-29T14:41:35.550Z,22.88
2023-04-29T14:44:02.644Z,20.17
2023-04-29T14:46:31.479Z,18.88
2023-04-29T14:48:58.627Z,18.75
2023-04-29T14:51:25.761Z,19.60
2023-04-29T14:53:52.897Z,21.60
2023-04-29T14:56:19.824Z,20.63
2023-04-29T14:58:46.821Z,20.63
2023-04-29T15:01:13.785Z,22.23
2023-04-29T15:03:44.318Z,18.27
2023-04-29T15:06:12.280Z,21.92
2023-04-29T15:08:39.382Z,22.30
2023-04-29T15:11:06.379Z,20.15
2023-04-29T15:13:33.300Z,15.63
2023-04-29T15:16:00.587Z,21.65
2023-04-29T15:18:27.665Z,18.15
2023-04-29T15:20:54.637Z,20.60
2023-04-29T15:23:21.568Z,16.95
2023-04-29T15:25:48.561Z,18.75
2023-04-29T15:28:15.686Z,18.13
2023-04-29T15:30:42.695Z,17.13
2023-04-29T15:33:09.686Z,15.10
2023-04-29T15:35:36.914Z,17.95
2023-04-29T15:38:03.857Z,22.67
2023-04-29T15:40:30.844Z,14.52
2023-04-29T15:42:57.747Z,18.92
2023-04-29T15:45:24.918Z,15.82
2023-04-29T15:47:51.882Z,16.55
2023-04-29T15:50:18.970Z,17.80
2023-04-29T15:52:46.597Z,21.67
2023-04-29T15:55:13.629Z,13.40
2023-04-29T15:57:42.208Z,18.75
2023-04-29T16:00:09.854Z,22.17
2023-04-29T16:02:36.950Z,14.10
2023-04-29T16:05:04.328Z,14.63
2023-04-29T16:07:31.329Z,16.77
2023-04-29T16:09:58.295Z,14.70
2023-04-29T16:12:25.347Z,13.57
2023-04-29T16:14:52.640Z,11.10
2023-04-29T16:17:19.690Z,15.18
2023-04-29T16:19:46.774Z,14.85
2023-04-29T16:22:13.682Z,13.07
2023-04-29T16:24:40.754Z,12.00
2023-04-29T16:27:07.745Z,8.73
2023-04-29T16:29:34.705Z,8.35
2023-04-29T16:32:01.640Z,10.75
2023-04-29T16:34:28.678Z,15.77
2023-04-29T16:36:55.666Z,15.50
2023-04-29T16:39:22.657Z,12.07
2023-04-29T16:41:49.827Z,8.63
2023-04-29T16:44:16.846Z,9.82
2023-04-29T16:46:45.220Z,8.52
2023-04-29T16:49:12.457Z,9.10
2023-04-29T16:51:39.666Z,13.88
2023-04-29T16:54:08.085Z,11.38
2023-04-29T16:56:35.123Z,14.70
2023-04-29T16:59:02.125Z,13.48
2023-04-29T17:01:29.052Z,8.98
2023-04-29T17:03:56.278Z,9.02
2023-04-29T17:06:24.262Z,11.52
2023-04-29T17:08:51.874Z,10.32
2023-04-29T17:11:18.809Z,8.15
2023-04-29T17:13:46.671Z,9.95
2023-04-29T17:16:16.249Z,12.90
2023-04-29T17:18:43.797Z,11.85
2023-04-29T17:21:10.844Z,13.35
2023-04-29T17:23:37.835Z,10.27
2023-04-29T17:26:05.339Z,10.18
2023-04-29T17:28:32.344Z,10.57
2023-04-29T17:31:01.249Z,12.57
2023-04-29T17:33:35.237Z,8.27
2023-04-29T17:36:04.178Z,8.70
2023-04-29T17:38:34.977Z,16.88
2023-04-29T17:41:02.663Z,8.05
2023-04-29T17:43:32.450Z,18.42
2023-04-29T17:45:59.711Z,30.10
2023-04-29T17:48:26.920Z,7.82
2023-04-29T17:50:54.476Z,14.73
2023-04-29T17:53:21.404Z,13.65
2023-04-29T17:55:48.458Z,17.27
2023-04-29T17:58:15.565Z,13.85
2023-04-29T18:00:42.968Z,9.55
2023-04-29T18:03:10.148Z,10.27
2023-04-29T18:05:37.306Z,18.42
2023-04-29T18:08:04.457Z,10.65
2023-04-29T18:10:31.468Z,19.38
2023-04-29T18:12:58.416Z,10.38
2023-04-29T18:15:25.366Z,14.63
2023-04-29T18:17:54.481Z,10.13
2023-04-29T18:20:22.477Z,10.95
2023-04-29T18:22:50.605Z,13.68
2023-04-29T18:25:17.805Z,16.08
2023-04-29T18:27:44.694Z,13.48
2023-04-29T18:30:12.367Z,13.30
2023-04-29T18:32:39.312Z,13.80
2023-04-29T18:35:06.692Z,10.80
2023-04-29T18:37:33.630Z,9.32
2023-04-29T18:40:00.639Z,9.00
2023-04-29T18:42:27.537Z,12.82
2023-04-29T18:44:55.142Z,13.60
2023-04-29T18:47:22.049Z,9.85
2023-04-29T18:49:49.024Z,8.13
2023-04-29T18:52:15.918Z,11.43
2023-04-29T18:54:42.883Z,13.48
2023-04-29T18:57:09.867Z,14.43
2023-04-29T18:59:38.074Z,10.50
2023-04-29T19:02:06.213Z,10.75
2023-04-29T19:04:34.708Z,12.25
2023-04-29T19:07:02.052Z,10.20
2023-04-29T19:09:32.461Z,14.18
2023-04-29T19:12:03.429Z,12.60
2023-04-29T19:14:33.096Z,8.40
2023-04-29T19:17:00.252Z,10.10
2023-04-29T19:19:27.185Z,12.50
2023-04-29T19:21:54.171Z,9.13
2023-04-29T19:24:21.222Z,14.25
2023-04-29T19:26:48.198Z,16.35
2023-04-29T19:29:15.949Z,9.43
2023-04-29T19:31:43.599Z,12.27
2023-04-29T19:34:10.494Z,12.63
2023-04-29T19:36:38.460Z,16.63
2023-04-29T19:39:05.429Z,10.52
2023-04-29T19:41:34.785Z,13.55
2023-04-29T19:44:02.268Z,12.18
2023-04-29T19:46:29.176Z,16.30
2023-04-29T19:48:56.161Z,11.93
2023-04-29T19:51:23.119Z,15.18
2023-04-29T19:53:51.371Z,15.05
2023-04-29T19:56:19.996Z,8.57
2023-04-29T19:58:47.421Z,15.38
2023-04-29T20:01:14.376Z,13.20
2023-04-29T20:03:41.694Z,12.68
2023-04-29T20:06:10.278Z,11.52
2023-04-29T20:08:37.662Z,11.48
2023-04-29T20:11:04.728Z,11.55
2023-04-29T20:13:31.765Z,9.77
2023-04-29T20:15:58.672Z,12.57
2023-04-29T20:18:26.369Z,10.55
2023-04-29T20:20:53.370Z,14.00
2023-04-29T20:23:20.306Z,10.57
2023-04-29T20:25:47.196Z,10.45
2023-04-29T20:28:14.312Z,15.48
2023-04-29T20:30:41.201Z,10.43
2023-04-29T20:33:09.297Z,10.20
2023-04-29T20:35:36.510Z,9.65
2023-04-29T20:38:03.489Z,12.38
2023-04-29T20:40:30.377Z,5.85
2023-04-29T20:42:57.796Z,9.05
2023-04-29T20:45:24.860Z,9.40
2023-04-29T20:47:52.265Z,12.68
2023-04-29T20:50:19.351Z,13.20
2023-04-29T20:52:49.190Z,9.18
2023-04-29T20:55:16.647Z,8.07
2023-04-29T20:57:43.549Z,9.30
2023-04-29T21:00:11.436Z,9.48
2023-04-29T21:02:38.322Z,6.00
2023-04-29T21:05:05.939Z,6.25
2023-04-29T21:07:32.798Z,11.50
2023-04-29T21:09:59.734Z,10.38
2023-04-29T21:12:26.664Z,12.88
2023-04-29T21:14:53.630Z,10.63
2023-04-29T21:17:20.658Z,11.77
2023-04-29T21:19:47.620Z,7.93
2023-04-29T21:22:14.502Z,13.13
2023-04-29T21:24:41.697Z,10.75
2023-04-29T21:27:08.684Z,9.05
2023-04-29T21:29:40.637Z,14.45
2023-04-29T21:32:08.605Z,11.73
2023-04-29T21:34:36.160Z,9.18
2023-04-29T21:37:03.120Z,11.68
2023-04-29T21:39:32.386Z,12.00
2023-04-29T21:42:01.102Z,9.25
2023-04-29T21:44:28.210Z,7.75
2023-04-29T21:46:55.232Z,11.93
2023-04-29T21:49:22.169Z,9.63
2023-04-29T21:51:49.272Z,9.95
2023-04-29T21:54:16.331Z,15.50
2023-04-29T21:56:43.307Z,11.48
2023-04-29T21:59:10.376Z,11.13
2023-04-29T22:01:48.276Z,15.18
2023-04-29T22:04:19.124Z,9.38
2023-04-29T22:06:46.380Z,12.40
2023-04-29T22:09:13.594Z,10.35
2023-04-29T22:11:40.537Z,11.52
2023-04-29T22:14:07.590Z,10.52
2023-04-29T22:16:36.078Z,12.80
2023-04-29T22:19:03.600Z,6.10
2023-04-29T22:21:31.721Z,10.55
2023-04-29T22:23:58.818Z,6.88
2023-04-29T22:26:25.776Z,11.75
2023-04-29T22:28:52.910Z,10.70
2023-04-29T22:31:19.919Z,14.85
2023-04-29T22:33:46.924Z,10.45
2023-04-29T22:36:13.887Z,11.63
2023-04-29T22:38:40.818Z,9.07
2023-04-29T22:41:09.631Z,11.02
2023-04-29T22:43:36.504Z,8.82
2023-04-29T22:46:03.768Z,7.18
2023-04-29T22:48:30.816Z,10.20
2023-04-29T22:51:04.101Z,8.70
2023-04-29T22:53:31.223Z,11.60
2023-04-29T22:55:59.568Z,10.25
2023-04-29T22:58:26.785Z,13.43
2023-04-29T23:00:56.781Z,10.38
2023-04-29T23:03:24.310Z,10.45
2023-04-29T23:05:51.731Z,14.05
2023-04-29T23:08:18.684Z,11.18
2023-04-29T23:10:52.062Z,12.65
2023-04-29T23:13:19.225Z,14.75
2023-04-29T23:15:46.308Z,12.00
2023-04-29T23:18:13.360Z,13.50
2023-04-29T23:20:40.483Z,13.13
2023-04-29T23:23:07.409Z,14.00
2023-04-29T23:25:34.843Z,13.07
2023-04-29T23:28:01.941Z,17.27
2023-04-29T23:30:29.086Z,15.75
2023-04-29T23:32:56.081Z,15.35
2023-04-29T23:35:23.053Z,16.55
2023-04-29T23:37:50.100Z,15.27
2023-04-29T23:40:17.114Z,13.48
2023-04-29T23:42:44.139Z,11.35
2023-04-29T23:45:11.032Z,12.43
2023-04-29T23:47:38.062Z,13.75
2023-04-29T23:50:05.745Z,13.77
2023-04-29T23:52:32.760Z,13.25
2023-04-29T23:54:59.890Z,12.35
2023-04-29T23:57:26.901Z,12.93
2023-04-29T23:59:53.975Z,12.00
